createdAt,value
2023-04-15T00:00:18.411Z,6.23
2023-04-15T00:03:21.942Z,6.20
2023-04-15T00:06:24.068Z,6.28
2023-04-15T00:09:25.651Z,6.23
2023-04-15T00:12:27.964Z,6.12
2023-04-15T00:15:29.835Z,6.11
2023-04-15T00:18:31.780Z,6.15
2023-04-15T00:21:34.116Z,6.17
2023-04-15T00:24:35.956Z,6.18
2023-04-15T00:27:38.637Z,6.19
2023-04-15T00:30:40.709Z,6.06
2023-04-15T00:33:42.551Z,5.94
2023-04-15T00:36:44.786Z,5.86
2023-04-15T00:39:47.104Z,5.81
2023-04-15T00:42:48.934Z,5.83
2023-04-15T00:45:53.672Z,5.92
2023-04-15T00:48:56.227Z,5.91
2023-04-15T00:51:57.919Z,5.84
2023-04-15T00:55:00.081Z,5.83
2023-04-15T00:58:02.123Z,5.86
2023-04-15T01:01:04.736Z,5.84
2023-04-15T01:04:07.168Z,5.86
2023-04-15T01:07:09.310Z,5.81
2023-04-15T01:10:11.319Z,5.85
2023-04-15T01:13:13.105Z,5.86
2023-04-15T01:16:15.105Z,5.84
2023-04-15T01:19:18.090Z,5.86
2023-04-15T01:22:19.808Z,5.87
2023-04-15T01:25:34.946Z,5.92
2023-04-15T01:28:37.772Z,5.92
2023-04-15T01:31:40.205Z,5.86
2023-04-15T01:34:42.321Z,5.86
2023-04-15T01:37:44.246Z,5.86
2023-04-15T01:40:46.160Z,5.87
2023-04-15T01:43:48.847Z,5.83
2023-04-15T01:46:50.489Z,5.81
2023-04-15T01:49:52.716Z,5.78
2023-04-15T01:52:54.349Z,5.79
2023-04-15T01:55:56.332Z,5.82
2023-04-15T01:58:58.272Z,5.82
2023-04-15T02:02:00.595Z,5.80
2023-04-15T02:05:02.561Z,5.88
2023-04-15T02:08:04.326Z,5.94
2023-04-15T02:11:06.242Z,5.99
2023-04-15T02:14:07.935Z,6.04
2023-04-15T02:17:09.699Z,6.04
2023-04-15T02:20:12.055Z,6.07
2023-04-15T02:23:13.922Z,6.09
2023-04-15T02:26:18.864Z,6.11
2023-04-15T02:29:20.477Z,6.16
2023-04-15T02:32:24.556Z,6.18
2023-04-15T02:35:26.832Z,6.21
2023-04-15T02:38:31.074Z,6.28
2023-04-15T02:41:33.033Z,6.18
2023-04-15T02:44:36.547Z,6.15
2023-04-15T02:47:46.854Z,6.14
2023-04-15T02:50:48.528Z,6.13
2023-04-15T02:53:51.683Z,6.11
2023-04-15T02:56:55.612Z,6.13
2023-04-15T02:59:57.643Z,6.13
2023-04-15T03:03:04.801Z,6.07
2023-04-15T03:06:07.134Z,6.10
2023-04-15T03:09:09.619Z,6.09
2023-04-15T03:12:12.506Z,6.09
2023-04-15T03:15:14.523Z,6.02
2023-04-15T03:18:19.983Z,6.11
2023-04-15T03:21:21.784Z,6.10
2023-04-15T03:24:24.817Z,6.08
2023-04-15T03:27:27.966Z,6.20
2023-04-15T03:30:34.285Z,6.13
2023-04-15T03:33:36.155Z,6.15
2023-04-15T03:36:37.747Z,6.18
2023-04-15T03:39:39.383Z,6.16
2023-04-15T03:42:41.912Z,6.17
2023-04-15T03:45:43.716Z,6.11
2023-04-15T03:48:45.436Z,6.05
2023-04-15T03:51:47.151Z,6.03
2023-04-15T03:54:48.836Z,6.11
2023-04-15T03:57:50.581Z,6.20
2023-04-15T04:00:52.640Z,6.11
2023-04-15T04:03:54.535Z,6.11
2023-04-15T04:06:56.343Z,6.02
2023-04-15T04:09:58.243Z,6.02
2023-04-15T04:13:00.021Z,6.05
2023-04-15T04:16:02.047Z,6.04
2023-04-15T04:19:03.975Z,5.96
2023-04-15T04:22:06.507Z,5.89
2023-04-15T04:25:10.363Z,5.81
2023-04-15T04:28:12.331Z,5.79
2023-04-15T04:31:14.254Z,5.79
2023-04-15T04:34:16.536Z,5.75
2023-04-15T04:37:18.449Z,5.83
2023-04-15T04:40:20.121Z,5.82
2023-04-15T04:43:22.492Z,5.71
2023-04-15T04:46:24.230Z,5.75
2023-04-15T04:49:26.271Z,5.77
2023-04-15T04:52:28.189Z,5.69
2023-04-15T04:55:30.600Z,5.72
2023-04-15T04:58:32.304Z,5.67
2023-04-15T05:01:34.325Z,5.62
2023-04-15T05:04:37.125Z,5.64
2023-04-15T05:07:39.652Z,5.69
2023-04-15T05:10:41.298Z,5.61
2023-04-15T05:13:43.048Z,5.65
2023-04-15T05:16:44.772Z,5.61
2023-04-15T05:19:46.633Z,5.75
2023-04-15T05:22:48.590Z,5.79
2023-04-15T05:25:50.349Z,5.74
2023-04-15T05:28:52.087Z,5.84
2023-04-15T05:31:53.784Z,5.85
2023-04-15T05:34:55.706Z,5.82
2023-04-15T05:37:57.545Z,5.83
2023-04-15T05:40:59.376Z,5.86
2023-04-15T05:44:02.022Z,5.83
2023-04-15T05:47:03.746Z,5.83
2023-04-15T05:50:06.673Z,5.87
2023-04-15T05:53:09.098Z,5.87
2023-04-15T05:56:10.810Z,5.86
2023-04-15T05:59:12.739Z,5.86
2023-04-15T06:02:14.649Z,5.84
2023-04-15T06:05:16.341Z,5.97
2023-04-15T06:08:19.472Z,5.98
2023-04-15T06:11:22.030Z,5.91
2023-04-15T06:14:23.843Z,6.01
2023-04-15T06:17:25.641Z,5.95
2023-04-15T06:20:28.075Z,5.91
2023-04-15T06:23:30.028Z,5.98
2023-04-15T06:26:31.825Z,5.99
2023-04-15T06:29:33.596Z,6.02
2023-04-15T06:32:35.464Z,5.98
2023-04-15T06:35:37.294Z,6.07
2023-04-15T06:38:39.021Z,6.01
2023-04-15T06:41:40.806Z,5.97
2023-04-15T06:44:42.544Z,6.02
2023-04-15T06:47:44.235Z,6.07
2023-04-15T06:50:46.405Z,6.07
2023-04-15T06:53:48.380Z,6.06
2023-04-15T06:56:53.708Z,6.09
2023-04-15T06:59:55.567Z,6.06
2023-04-15T07:02:57.353Z,6.13
2023-04-15T07:05:59.067Z,6.09
2023-04-15T07:09:01.969Z,6.18
2023-04-15T07:12:04.445Z,6.13
2023-04-15T07:15:07.152Z,6.15
2023-04-15T07:18:09.949Z,6.13
2023-04-15T07:21:12.008Z,6.18
2023-04-15T07:24:18.021Z,6.25
2023-04-15T07:27:19.862Z,6.16
2023-04-15T07:30:21.737Z,6.10
2023-04-15T07:33:23.962Z,6.16
2023-04-15T07:36:26.092Z,6.19
2023-04-15T07:39:27.845Z,6.23
2023-04-15T07:42:29.764Z,6.26
2023-04-15T07:45:32.231Z,6.27
2023-04-15T07:48:35.530Z,6.25
2023-04-15T07:51:38.552Z,6.32
2023-04-15T07:54:40.457Z,6.36
2023-04-15T07:57:42.486Z,6.40
2023-04-15T08:00:44.834Z,6.47
2023-04-15T08:03:47.457Z,6.55
2023-04-15T08:06:50.432Z,6.56
2023-04-15T08:09:52.510Z,6.54
2023-04-15T08:12:57.792Z,6.57
2023-04-15T08:16:19.563Z,6.55
2023-04-15T08:19:21.887Z,6.53
2023-04-15T08:22:24.283Z,6.57
2023-04-15T08:25:26.576Z,6.57
2023-04-15T08:28:30.639Z,6.67
2023-04-15T08:31:32.625Z,6.68
2023-04-15T08:34:35.055Z,6.73
2023-04-15T08:37:36.968Z,6.72
2023-04-15T08:40:46.220Z,6.70
2023-04-15T08:44:02.378Z,6.66
2023-04-15T08:47:08.030Z,6.71
2023-04-15T08:50:11.108Z,6.67
2023-04-15T08:53:13.304Z,6.66
2023-04-15T08:56:20.363Z,6.73
2023-04-15T08:59:22.590Z,6.70
2023-04-15T09:02:26.571Z,6.77
2023-04-15T09:05:33.119Z,6.76
2023-04-15T09:08:35.905Z,6.73
2023-04-15T09:11:38.074Z,6.74
2023-04-15T09:14:47.375Z,6.78
2023-04-15T09:17:49.060Z,6.94
2023-04-15T09:20:53.781Z,6.88
2023-04-15T09:23:58.392Z,6.91
2023-04-15T09:27:00.565Z,6.90
2023-04-15T09:30:02.373Z,6.92
2023-04-15T09:33:13.760Z,6.88
2023-04-15T09:36:15.681Z,6.92
2023-04-15T09:39:17.432Z,6.94
2023-04-15T09:42:29.060Z,6.95
2023-04-15T09:45:32.049Z,6.95
2023-04-15T09:48:33.811Z,6.95
2023-04-15T09:51:36.610Z,6.98
2023-04-15T09:54:41.665Z,7.08
2023-04-15T09:57:44.692Z,7.08
2023-04-15T10:00:49.337Z,7.05
2023-04-15T10:03:52.260Z,7.15
2023-04-15T10:06:54.453Z,7.22
2023-04-15T10:09:56.645Z,7.23
2023-04-15T10:12:58.200Z,7.23
2023-04-15T10:16:02.693Z,7.21
2023-04-15T10:19:07.025Z,7.26
2023-04-15T10:22:09.176Z,7.31
2023-04-15T10:25:12.172Z,7.33
2023-04-15T10:28:15.590Z,7.36
2023-04-15T10:31:31.037Z,7.40
2023-04-15T10:34:33.626Z,7.46
2023-04-15T10:37:37.771Z,7.51
2023-04-15T10:40:40.025Z,7.50
2023-04-15T10:44:02.796Z,7.48
2023-04-15T10:47:19.081Z,7.52
2023-04-15T10:50:22.529Z,7.56
2023-04-15T10:53:32.282Z,7.61
2023-04-15T10:56:34.485Z,7.64
2023-04-15T10:59:38.044Z,7.68
2023-04-15T11:02:45.812Z,7.75
2023-04-15T11:05:54.455Z,7.79
2023-04-15T11:08:59.283Z,7.80
2023-04-15T11:12:09.032Z,7.81
2023-04-15T11:15:37.781Z,7.89
2023-04-15T11:18:39.677Z,7.90
2023-04-15T11:21:41.850Z,7.97
2023-04-15T11:24:52.454Z,7.97
2023-04-15T11:27:55.408Z,8.01
2023-04-15T11:30:58.581Z,8.06
2023-04-15T11:34:02.469Z,8.16
2023-04-15T11:37:08.012Z,8.22
2023-04-15T11:40:12.993Z,8.27
2023-04-15T11:43:22.567Z,8.37
2023-04-15T11:46:32.159Z,8.38
2023-04-15T11:49:35.239Z,8.44
2023-04-15T11:52:37.196Z,8.51
2023-04-15T11:55:44.899Z,8.51
2023-04-15T11:58:47.329Z,8.57
2023-04-15T12:01:50.125Z,8.64
2023-04-15T12:05:02.788Z,8.72
2023-04-15T12:08:07.594Z,8.81
2023-04-15T12:11:09.514Z,8.91
2023-04-15T12:14:32.723Z,8.92
2023-04-15T12:17:51.070Z,8.87
2023-04-15T12:20:54.597Z,8.88
2023-04-15T12:23:58.127Z,8.79
2023-04-15T12:27:05.020Z,8.84
2023-04-15T12:30:07.972Z,8.82
2023-04-15T12:33:10.435Z,8.84
2023-04-15T12:36:12.026Z,8.79
2023-04-15T12:39:13.832Z,8.75
2023-04-15T12:42:16.950Z,8.71
2023-04-15T12:45:18.599Z,8.79
2023-04-15T12:48:20.621Z,8.83
2023-04-15T12:51:22.420Z,8.91
2023-04-15T12:54:24.108Z,8.95
2023-04-15T12:57:26.027Z,8.98
2023-04-15T13:00:28.110Z,9.04
2023-04-15T13:03:33.020Z,9.03
2023-04-15T13:06:35.215Z,8.97
2023-04-15T13:09:36.922Z,9.06
2023-04-15T13:12:38.475Z,9.11
2023-04-15T13:15:40.758Z,9.14
2023-04-15T13:18:42.320Z,9.17
2023-04-15T13:21:44.114Z,9.17
2023-04-15T13:24:46.129Z,9.17
2023-04-15T13:27:48.308Z,9.30
2023-04-15T13:30:50.502Z,9.47
2023-04-15T13:33:52.528Z,9.58
2023-04-15T13:36:54.436Z,9.67
2023-04-15T13:39:57.058Z,9.89
2023-04-15T13:42:58.995Z,9.97
2023-04-15T13:46:01.405Z,9.96
2023-04-15T13:49:03.663Z,10.00
2023-04-15T13:52:05.772Z,10.11
2023-04-15T13:55:20.603Z,10.19
2023-04-15T13:58:25.915Z,10.38
2023-04-15T14:01:27.945Z,10.66
2023-04-15T14:04:31.718Z,10.87
2023-04-15T14:07:33.560Z,11.64
2023-04-15T14:10:35.521Z,12.37
2023-04-15T14:13:37.534Z,12.75
2023-04-15T14:16:39.568Z,13.08
2023-04-15T14:19:41.491Z,13.13
2023-04-15T14:22:43.661Z,13.06
2023-04-15T14:25:47.947Z,13.09
2023-04-15T14:28:50.585Z,13.43
2023-04-15T14:32:11.052Z,13.74
2023-04-15T14:35:15.708Z,13.44
2023-04-15T14:38:17.659Z,12.89
2023-04-15T14:41:19.681Z,12.27
2023-04-15T14:44:21.583Z,11.92
2023-04-15T14:47:23.641Z,11.71
2023-04-15T14:50:26.015Z,11.61
2023-04-15T14:53:29.288Z,11.56
2023-04-15T14:56:31.402Z,11.54
2023-04-15T14:59:34.901Z,11.55
2023-04-15T15:02:39.907Z,11.81
2023-04-15T15:05:44.811Z,11.97
2023-04-15T15:08:46.502Z,12.24
2023-04-15T15:11:48.461Z,12.38
2023-04-15T15:14:50.311Z,12.13
2023-04-15T15:17:52.270Z,12.12
2023-04-15T15:20:54.093Z,12.17
2023-04-15T15:23:55.992Z,12.25
2023-04-15T15:26:57.839Z,12.27
2023-04-15T15:29:59.849Z,12.34
2023-04-15T15:33:01.648Z,12.35
2023-04-15T15:36:04.825Z,12.24
2023-04-15T15:39:24.388Z,11.83
2023-04-15T15:42:37.463Z,11.55
2023-04-15T15:45:41.050Z,11.54
2023-04-15T15:48:43.365Z,11.67
2023-04-15T15:51:46.755Z,11.87
2023-04-15T15:54:49.268Z,12.06
2023-04-15T15:57:52.105Z,12.07
2023-04-15T16:00:55.416Z,12.03
2023-04-15T16:03:57.806Z,11.93
2023-04-15T16:06:59.793Z,11.87
2023-04-15T16:10:01.646Z,11.75
2023-04-15T16:13:03.524Z,11.68
2023-04-15T16:16:05.424Z,11.68
2023-04-15T16:19:07.312Z,11.80
2023-04-15T16:22:09.128Z,12.04
2023-04-15T16:25:14.140Z,12.33
2023-04-15T16:28:25.781Z,12.52
2023-04-15T16:31:28.637Z,12.58
2023-04-15T16:34:30.389Z,12.32
2023-04-15T16:37:33.329Z,12.12
2023-04-15T16:40:35.213Z,12.12
2023-04-15T16:43:37.121Z,12.19
2023-04-15T16:46:40.851Z,12.22
2023-04-15T16:49:42.923Z,12.10
2023-04-15T16:52:44.751Z,11.85
2023-04-15T16:55:46.869Z,11.59
2023-04-15T16:58:48.593Z,11.28
2023-04-15T17:01:50.704Z,11.06
2023-04-15T17:04:52.532Z,10.86
2023-04-15T17:07:55.165Z,10.76
2023-04-15T17:11:06.652Z,10.62
2023-04-15T17:14:09.119Z,10.48
2023-04-15T17:17:13.239Z,10.45
2023-04-15T17:20:17.413Z,10.34
2023-04-15T17:23:22.400Z,10.33
2023-04-15T17:26:24.412Z,10.27
2023-04-15T17:29:26.308Z,10.26
2023-04-15T17:32:34.886Z,10.32
2023-04-15T17:35:36.903Z,10.35
2023-04-15T17:38:39.052Z,10.36
2023-04-15T17:41:41.104Z,10.34
2023-04-15T17:44:42.888Z,10.32
2023-04-15T17:47:44.952Z,10.33
2023-04-15T17:50:56.179Z,10.42
2023-04-15T17:53:57.920Z,10.46
2023-04-15T17:57:01.379Z,10.46
2023-04-15T18:00:03.404Z,10.42
2023-04-15T18:03:14.847Z,10.39
2023-04-15T18:06:16.977Z,10.29
2023-04-15T18:09:19.849Z,10.32
2023-04-15T18:12:21.632Z,10.33
2023-04-15T18:15:23.327Z,10.31
2023-04-15T18:18:25.136Z,10.32
2023-04-15T18:21:27.116Z,10.30
2023-04-15T18:24:28.957Z,10.30
2023-04-15T18:27:32.404Z,10.32
2023-04-15T18:30:34.187Z,10.26
2023-04-15T18:33:36.196Z,10.25
2023-04-15T18:36:38.046Z,10.20
2023-04-15T18:39:40.132Z,10.26
2023-04-15T18:42:41.993Z,10.24
2023-04-15T18:45:44.021Z,10.26
2023-04-15T18:48:46.499Z,10.19
2023-04-15T18:51:48.376Z,10.12
2023-04-15T18:54:49.959Z,10.15
2023-04-15T18:57:51.750Z,10.19
2023-04-15T19:00:53.858Z,10.09
2023-04-15T19:03:55.625Z,10.18
2023-04-15T19:06:58.848Z,10.07
2023-04-15T19:10:00.797Z,10.13
2023-04-15T19:13:04.335Z,10.17
2023-04-15T19:16:06.694Z,10.03
2023-04-15T19:19:08.652Z,9.99
2023-04-15T19:22:10.571Z,9.97
2023-04-15T19:25:12.369Z,9.97
2023-04-15T19:28:14.243Z,9.93
2023-04-15T19:31:17.181Z,9.96
2023-04-15T19:34:19.063Z,10.02
2023-04-15T19:37:20.808Z,10.02
2023-04-15T19:40:22.759Z,9.92
2023-04-15T19:43:24.969Z,9.93
2023-04-15T19:46:27.907Z,9.93
2023-04-15T19:49:30.407Z,9.93
2023-04-15T19:52:32.242Z,9.85
2023-04-15T19:55:33.953Z,9.82
2023-04-15T19:58:35.732Z,9.95
2023-04-15T20:01:37.425Z,9.95
2023-04-15T20:04:39.666Z,9.85
2023-04-15T20:07:47.648Z,9.89
2023-04-15T20:10:49.502Z,9.73
2023-04-15T20:13:51.312Z,9.74
2023-04-15T20:16:52.990Z,9.73
2023-04-15T20:19:54.660Z,9.57
2023-04-15T20:22:56.484Z,9.69
2023-04-15T20:25:58.345Z,9.61
2023-04-15T20:29:00.507Z,9.58
2023-04-15T20:32:02.497Z,9.69
2023-04-15T20:35:05.664Z,9.78
2023-04-15T20:38:07.320Z,9.88
2023-04-15T20:41:09.034Z,9.85
2023-04-15T20:44:10.890Z,9.73
2023-04-15T20:47:12.792Z,9.62
2023-04-15T20:50:14.725Z,9.56
2023-04-15T20:53:16.640Z,9.46
2023-04-15T20:56:18.524Z,9.38
2023-04-15T20:59:20.647Z,9.43
2023-04-15T21:02:24.195Z,9.53
2023-04-15T21:05:26.094Z,9.64
2023-04-15T21:08:30.021Z,9.41
2023-04-15T21:11:53.271Z,9.24
2023-04-15T21:14:53.905Z,9.26
2023-04-15T21:17:55.873Z,9.35
2023-04-15T21:20:59.082Z,9.27
2023-04-15T21:24:00.891Z,9.19
2023-04-15T21:27:02.712Z,9.15
2023-04-15T21:30:04.750Z,9.24
2023-04-15T21:33:06.740Z,9.22
2023-04-15T21:36:08.751Z,9.20
2023-04-15T21:39:10.930Z,9.17
2023-04-15T21:42:12.744Z,9.21
2023-04-15T21:45:14.897Z,9.18
2023-04-15T21:48:16.739Z,9.10
2023-04-15T21:51:18.482Z,9.06
2023-04-15T21:54:20.479Z,9.11
2023-04-15T21:57:22.139Z,9.00
2023-04-15T22:00:24.359Z,8.96
2023-04-15T22:03:29.406Z,8.94
2023-04-15T22:06:32.387Z,8.90
2023-04-15T22:09:34.159Z,8.90
2023-04-15T22:12:36.223Z,8.84
2023-04-15T22:15:41.575Z,8.83
2023-04-15T22:18:43.301Z,8.82
2023-04-15T22:21:46.241Z,8.78
2023-04-15T22:24:48.086Z,8.78
2023-04-15T22:27:49.803Z,8.67
2023-04-15T22:30:54.223Z,8.67
2023-04-15T22:33:56.343Z,8.55
2023-04-15T22:36:57.979Z,8.65
2023-04-15T22:39:59.856Z,8.54
2023-04-15T22:43:01.673Z,8.53
2023-04-15T22:46:03.367Z,8.58
2023-04-15T22:49:11.045Z,8.51
2023-04-15T22:52:23.343Z,8.46
2023-04-15T22:55:31.631Z,8.47
2023-04-15T22:58:33.308Z,8.39
2023-04-15T23:01:35.394Z,8.34
2023-04-15T23:04:37.312Z,8.34
2023-04-15T23:07:39.131Z,8.36
2023-04-15T23:10:41.095Z,8.31
2023-04-15T23:13:42.673Z,8.35
2023-04-15T23:16:45.468Z,8.38
2023-04-15T23:19:47.132Z,8.34
2023-04-15T23:22:48.795Z,8.31
2023-04-15T23:25:50.762Z,8.39
2023-04-15T23:28:52.459Z,8.43
2023-04-15T23:31:54.374Z,8.45
2023-04-15T23:34:56.018Z,8.48
2023-04-15T23:37:57.683Z,8.40
2023-04-15T23:40:59.261Z,8.43
2023-04-15T23:44:01.064Z,8.43
2023-04-15T23:47:02.807Z,8.51
2023-04-15T23:50:05.298Z,8.45
2023-04-15T23:53:06.910Z,8.40
2023-04-15T23:56:08.724Z,8.43
2023-04-15T23:59:10.697Z,8.43
